Terminal Aerodrome Forecast
Issued by NWS

Current Version | Previous Version | Graphics & Text | Print | Product List | Glossary On
Versions: 1 2 3 4 5 6 7 8 9 10 11 12 13 14 15 16 17 18 19 20 21 22 23 24 25 26 27 28 29 30 31 32 33
390
FTUS41 KRNK 130236 AAA
TAFLWB
TAF AMD
KLWB 130236Z 1303/1324 30012G25KT 2SM -SHSN OVC012
      TEMPO 1303/1307 3/4SM -SHSN OVC008
     FM130900 30010G22KT 4SM -SHSN OVC018
     FM131200 30010G20KT P6SM -SHSN OVC020
     FM131600 30009G17KT P6SM -SHSN BKN030=

USA.gov is the U.S. government's official web portal to all federal, state and local government web resources and services.